• Join FlightAware (Why Join?)
  • Login
  • US Flag 
04:27AM EDT


 

Airport Tracker/Info


-or-


 

Live Flight TrackerFlight Track Log ✈ DAL6221 ✈ 29-Apr-2013 ✈ KLGA - KBTV

Flight Track Log - Related Links

Times and Time Zones

All times are in EDT time to prevent confusion due to time zone crossing. See the DAL6221 flight status page for this flight to view local times or setup timezone preferences in your user account.

Time Position Orientation Groundspeed Altitude Reporting Facility
EDT Latitude Longitude Course Direction KTS MPH feet Rate Location/Type
12:51PM 40.7333 -73.8333 33° Northeast 166 191 2,500  Level New York TRACON
12:52PM 40.7833 -73.7667 45° Northeast 253 291 4,900 2,520 Climbing New York TRACON
12:53PM 40.8500 -73.7333 21° North 288 331 7,600 2,460 Climbing New York TRACON
12:55PM 41.0061 -73.6283 27° Northeast 304 350 12,700 2,100 Climbing Boston Center
12:56PM 41.2396 -73.4904 33° Northeast  Level FlightAware Approximate
12:56PM 41.1028 -73.5531 30° Northeast 340 391 14,500  Level Boston Center
12:57PM 41.1847 -73.4853 32° Northeast 373 429 16,200 1,740 Climbing Boston Center
12:58PM 41.2833 -73.4042 32° Northeast 380 437 18,000 1,320 Climbing Boston Center
12:59PM 41.3589 -73.3417 32° Northeast 391 450 18,900 1,320 Climbing Boston Center
01:00PM 41.4681 -73.2517 32° Northeast 408 470 20,700 1,740 Climbing Boston Center
01:01PM 41.5664 -73.1697 32° Northeast 414 476 22,400 1,560 Climbing Boston Center
01:02PM 41.6711 -73.1156 21° North 403 464 23,900 1,440 Climbing Boston Center
01:03PM 41.7856 -73.1361 352° North 396 456 25,300 1,200 Climbing Boston Center
01:04PM 41.9042 -73.1542 354° North 401 461 26,300 840 Climbing Boston Center
01:05PM 42.0208 -73.1750 352° North 419 482 27,000 300 Climbing Boston Center
01:06PM 42.1414 -73.1989 352° North 426 490 27,000  Level Boston Center
01:07PM 42.2747 -73.2200 353° North 432 497 27,000  Level Boston Center
01:08PM 42.3872 -73.2300 356° North 438 504 27,000  Level Boston Center
01:09PM 42.5081 -73.2511 353° North 443 510 27,000  Level Boston Center
01:10PM 42.6431 -73.2869 349° North 443 510 27,000  Level Boston Center
01:11PM 42.7639 -73.3056 354° North 443 510 27,000  Level Boston Center
01:12PM 42.8847 -73.3269 353° North 443 510 27,000  Level Boston Center
01:13PM 43.0075 -73.3431 355° North 448 516 27,000  Level Boston Center
01:14PM 43.1306 -73.3278 North 442 509 27,100 -120 Climbing Boston Center
01:15PM 43.2536 -73.3125 North 442 509 26,800 -1,560 Descending Boston Center
01:16PM 43.3831 -73.2972 North 442 509 24,000 -2,760 Descending Boston Center
01:17PM 43.4914 -73.2814 North 442 509 21,300 -2,760 Descending Boston Center
01:18PM 43.6125 -73.2658 North 442 509 18,500 -2,700 Descending Boston Center
01:19PM 43.7397 -73.2506 North 437 503 16,000 -2,520 Descending Boston Center
01:20PM 43.8503 -73.2375 North 412 474 13,500 -2,280 Descending Boston Center
01:21PM 43.9503 -73.2217 North 383 441 11,500 -1,500 Descending Boston Center
01:22PM 44.0317 -73.2225 360° North 340 391 10,500 -1,200 Descending Boston Center
01:23PM 44.1106 -73.2439 349° North 300 345 9,100 -1,500 Descending Boston Center
01:24PM 44.1939 -73.2625 351° North 288 331 7,500 -1,440 Descending Boston Center
01:25PM 44.2853 -73.2986 344° North 288 331 6,000 -1,320 Descending Boston Center
01:26PM 44.3600 -73.3403 338° Northwest 288 331 4,700 -1,200 Descending Boston Center
01:27PM 44.4286 -73.3469 356° North 262 302 3,600 -1,140 Descending Boston Center
01:28PM 44.4853 -73.2925 34° Northeast 226 260 2,500 -960 Descending Boston Center
01:29PM 44.5106 -73.2406 56° Northeast 180 207 1,700 -900 Descending Boston Center
01:30PM 44.4964 -73.1939 113° Southeast 129 148 800 -720 Descending Boston Center
01:31PM 44.4758 -73.1586 129° Southeast 129 148 300 -300 Descending Boston Center
01:32PM 44.4694 -73.1558 163° South 92 106 300  Level Boston Center
01:33PM 44.4675 -73.1556 174° South 47 54 300  Level Boston Center